Flight Track Log - Related Links

Times and Time Zones

All times are in EST time to prevent confusion due to time zone crossing. See the UPS2872 flight status page for this flight to view local times or setup timezone preferences in your user account.

Time Position Orientation Groundspeed Altitude Reporting Facility
EST Latitude Longitude Course Direction KTS MPH feet Rate Location/Type
Mon 04:00:00 PM 38.1770 -85.7460 297° West 120 138  Level FlightAware ADS-B
Mon 04:00:38 PM 38.1510 -85.7370 165° South 159 183 1,700 2,143 Climbing FlightAware ADS-B
Mon 04:01:10 PM 38.1240 -85.7320 172° South 208 239 2,500 1,900 Climbing FlightAware ADS-B
Mon 04:01:38 PM 38.0960 -85.7340 183° South 223 257 3,600 2,328 Climbing FlightAware ADS-B
Mon 04:02:17 PM 38.0680 -85.7680 224° Southwest 237 273 5,100 2,912 Climbing FlightAware ADS-B
Mon 04:02:46 PM 38.0570 -85.8070 250° West 239 275 6,900 3,600 Climbing FlightAware ADS-B
Mon 04:03:12 PM 38.0450 -85.8400 245° Southwest 238 274 8,400 2,769 Climbing FlightAware ADS-B
Mon 04:03:51 PM 38.0260 -85.8910 245° Southwest 261 300 9,900 1,881 Climbing FlightAware ADS-B
Mon 04:04:19 PM 38.0110 -85.9330 246° West 297 342 10,500 2,438 Climbing FlightAware ADS-B
Mon 04:04:55 PM 37.9920 -85.9930 248° West 307 353 12,500 3,038 Climbing FlightAware ADS-B
Mon 04:05:38 PM 37.9870 -86.0690 265° West 338 389 14,500 3,584 Climbing FlightAware ADS-B
Mon 04:06:12 PM 37.9820 -86.1350 265° West 332 382 17,100 3,864 Climbing FlightAware ADS-B
Mon 04:06:37 PM 37.9780 -86.1840 264° West 344 396 18,300 3,304 Climbing FlightAware ADS-B
Mon 04:07:21 PM 37.9694 -86.2760 263° West 351 404 20,900 2,706 Climbing FlightAware ADS-B
Mon 04:08:19 PM 37.9630 -86.3970 266° West 370 426 22,900 1,721 Climbing FlightAware ADS-B
Mon 04:09:23 PM 37.9550 -86.5350 266° West 370 426 24,400 1,916 Climbing FlightAware ADS-B
Mon 04:10:18 PM 37.9480 -86.6590 266° West 386 444 26,700 2,388 Climbing FlightAware ADS-B
Mon 04:11:01 PM 37.9420 -86.7560 266° West 395 455 28,300 2,082 Climbing FlightAware ADS-B
Mon 04:11:56 PM 37.9340 -86.8870 266° West 408 470 30,100 2,090 Climbing FlightAware ADS-B
Mon 04:12:30 PM 37.9290 -86.9670 265° West 408 470 31,400 1,832 Climbing FlightAware ADS-B
Mon 04:13:31 PM 37.9198 -87.1120 265° West 411 473 33,000 1,055 Climbing FlightAware ADS-B
Mon 04:14:01 PM 37.9150 -87.1830 265° West 412 474 33,000  Level FlightAware ADS-B
Mon 04:14:35 PM 37.9100 -87.2640 266° West 410 472 33,000  Level FlightAware ADS-B
Mon 04:15:07 PM 37.9050 -87.3400 265° West 408 470 33,000 656 Level FlightAware ADS-B
Mon 04:15:39 PM 37.9000 -87.4160 265° West 403 464 33,700 968 Climbing FlightAware ADS-B
Mon 04:16:09 PM 37.8950 -87.4870 265° West 410 472 34,000 184 Climbing FlightAware ADS-B
Mon 04:17:17 PM 37.8840 -87.6490 265° West 409 471 34,000  Level FlightAware ADS-B
Mon 04:17:46 PM 37.8800 -87.7200 266° West 407 468 34,000  Level FlightAware ADS-B
Mon 04:18:17 PM 37.8750 -87.7920 265° West 407 468 34,000  Level FlightAware ADS-B
Mon 04:19:28 PM 37.8630 -87.9620 265° West 407 468 34,000  Level FlightAware ADS-B
Mon 04:19:57 PM 37.8580 -88.0280 265° West 407 468 34,000  Level FlightAware ADS-B
Mon 04:20:49 PM 37.8490 -88.1520 265° West 407 468 34,000  Level FlightAware ADS-B
Mon 04:21:41 PM 37.8400 -88.2750 265° West 407 468 34,000  Level FlightAware ADS-B
Mon 04:22:25 PM 37.8320 -88.3790 264° West 407 468 34,000  Level FlightAware ADS-B
Mon 04:23:14 PM 37.8230 -88.4960 264° West 408 470 34,000  Level FlightAware ADS-B
Mon 04:23:55 PM 37.8160 -88.5930 265° West 409 471 34,000  Level FlightAware ADS-B
Mon 04:24:48 PM 37.8060 -88.7210 264° West 409 471 34,000  Level FlightAware ADS-B
Mon 04:25:17 PM 37.8010 -88.7870 265° West 409 471 34,000  Level FlightAware ADS-B
Mon 04:25:46 PM 37.7960 -88.8580 265° West 410 472 34,000  Level FlightAware ADS-B
Mon 04:26:36 PM 37.7860 -88.9760 264° West 410 472 34,000  Level FlightAware ADS-B
Mon 04:27:33 PM 37.7750 -89.1120 264° West 410 472 34,000  Level FlightAware ADS-B
Mon 04:28:21 PM 37.7660 -89.2270 264° West 410 472 34,000  Level FlightAware ADS-B
Mon 04:29:18 PM 37.7550 -89.3620 264° West 410 472 34,000  Level FlightAware ADS-B
Mon 04:30:10 PM 37.7440 -89.4860 264° West 411 473 34,000  Level FlightAware ADS-B
Mon 04:31:11 PM 37.7320 -89.6310 264° West 411 473 34,000  Level FlightAware ADS-B
Mon 04:31:59 PM 37.7220 -89.7450 264° West 410 472 34,000  Level FlightAware ADS-B
Mon 04:32:20 PM 37.7180 -89.7960 264° West 410 472 34,000  Level FlightAware ADS-B
Mon 04:33:26 PM 37.7040 -89.9510 264° West 410 472 34,000  Level FlightAware ADS-B
Mon 04:34:18 PM 37.6930 -90.0740 264° West 411 473 34,000  Level FlightAware ADS-B
Mon 04:35:16 PM 37.6810 -90.2140 264° West 412 474 34,000  Level FlightAware ADS-B
Mon 04:35:51 PM 37.6740 -90.2940 264° West 412 474 34,000  Level FlightAware ADS-B
Mon 04:36:28 PM 37.6650 -90.3860 263° West 411 473 34,000  Level FlightAware ADS-B
Mon 04:36:56 PM 37.6590 -90.4480 263° West 411 473 34,000  Level FlightAware ADS-B
Mon 04:37:48 PM 37.6480 -90.5730 264° West 411 473 34,000  Level FlightAware ADS-B
Mon 04:38:45 PM 37.6350 -90.7100 263° West 410 472 34,000  Level FlightAware ADS-B
Mon 04:39:18 PM 37.6270 -90.7880 263° West 410 472 34,000  Level FlightAware ADS-B
Mon 04:39:49 PM 37.6200 -90.8630 263° West 411 473 34,000  Level FlightAware ADS-B
Mon 04:40:30 PM 37.6110 -90.9600 263° West 412 474 34,000  Level FlightAware ADS-B
Mon 04:41:28 PM 37.5970 -91.0980 263° West 412 474 34,000  Level FlightAware ADS-B
Mon 04:42:24 PM 37.5840 -91.2330 263° West 413 475 34,000  Level FlightAware ADS-B
Mon 04:43:15 PM 37.5720 -91.3520 263° West 414 476 34,000  Level FlightAware ADS-B
Mon 04:44:07 PM 37.5600 -91.4760 263° West 415 478 34,000  Level FlightAware ADS-B
Mon 04:44:51 PM 37.5490 -91.5840 263° West 417 480 34,000  Level FlightAware ADS-B
Mon 04:45:46 PM 37.5350 -91.7170 262° West 419 482 34,000  Level FlightAware ADS-B
Mon 04:46:30 PM 37.5240 -91.8210 262° West 420 483 34,000  Level FlightAware ADS-B
Mon 04:47:17 PM 37.5120 -91.9380 263° West 421 484 34,000  Level FlightAware ADS-B
Mon 04:48:13 PM 37.4980 -92.0730 263° West 422 486 34,000  Level FlightAware ADS-B
Mon 04:49:06 PM 37.4840 -92.2020 262° West 422 486 34,000  Level FlightAware ADS-B
Mon 04:49:59 PM 37.4700 -92.3320 262° West 422 486 34,000  Level FlightAware ADS-B
Mon 04:50:52 PM 37.4560 -92.4590 262° West 420 483 34,000  Level FlightAware ADS-B
Mon 04:51:22 PM 37.4480 -92.5320 262° West 420 483 34,000  Level FlightAware ADS-B
Mon 04:52:18 PM 37.4330 -92.6680 262° West 420 483 34,000  Level FlightAware ADS-B
Mon 04:52:55 PM 37.4230 -92.7560 262° West 420 483 34,000  Level FlightAware ADS-B
Mon 04:53:21 PM 37.4160 -92.8190 262° West 419 482 34,000  Level FlightAware ADS-B
Mon 04:54:19 PM 37.4000 -92.9580 262° West 419 482 34,000  Level FlightAware ADS-B
Mon 04:55:16 PM 37.3840 -93.0950 262° West 418 481 34,000  Level FlightAware ADS-B
Mon 04:56:10 PM 37.3690 -93.2240 262° West 419 482 34,000  Level FlightAware ADS-B
Mon 04:57:02 PM 37.3520 -93.3510 260° West 421 484 34,000  Level FlightAware ADS-B
Mon 04:58:03 PM 37.3310 -93.4960 260° West 422 486 34,000  Level FlightAware ADS-B
Mon 04:58:53 PM 37.3120 -93.6150 259° West 423 487 34,000  Level FlightAware ADS-B
Mon 04:59:22 PM 37.3010 -93.6880 259° West 424 488 34,000  Level FlightAware ADS-B
Mon 05:00:10 PM 37.2820 -93.8040 258° West 425 489 34,000  Level FlightAware ADS-B
Mon 05:00:52 PM 37.2660 -93.9030 259° West 426 490 34,000  Level FlightAware ADS-B
Mon 05:01:28 PM 37.2520 -93.9900 259° West 426 490 34,000  Level FlightAware ADS-B
Mon 05:02:34 PM 37.2270 -94.1480 259° West 427 491 34,000  Level FlightAware ADS-B
Mon 05:03:09 PM 37.2130 -94.2340 258° West 427 491 34,000  Level FlightAware ADS-B
Mon 05:04:03 PM 37.1910 -94.3630 258° West 426 490 34,000  Level FlightAware ADS-B
Mon 05:04:52 PM 37.1710 -94.4860 259° West 426 490 34,000  Level FlightAware ADS-B
Mon 05:05:47 PM 37.1490 -94.6170 258° West 428 493 34,000  Level FlightAware ADS-B
Mon 05:06:47 PM 37.1250 -94.7620 258° West 431 496 34,000  Level FlightAware ADS-B
Mon 05:07:39 PM 37.1040 -94.8890 258° West 431 496 34,000  Level FlightAware ADS-B
Mon 05:08:23 PM 37.0850 -94.9960 257° West 430 495 34,000  Level FlightAware ADS-B
Mon 05:09:10 PM 37.0650 -95.1130 258° West 428 493 34,000  Level FlightAware ADS-B
Mon 05:09:43 PM 37.0520 -95.1920 258° West 427 491 34,000  Level FlightAware ADS-B
Mon 05:10:40 PM 37.0280 -95.3300 258° West 429 494 34,000  Level FlightAware ADS-B
Mon 05:11:24 PM 37.0100 -95.4360 258° West 430 495 34,000  Level FlightAware ADS-B
Mon 05:12:09 PM 36.9910 -95.5420 257° West 432 497 34,000  Level FlightAware ADS-B
Mon 05:12:52 PM 36.9720 -95.6510 258° West 435 501 34,000  Level FlightAware ADS-B
Mon 05:13:50 PM 36.9470 -95.7910 257° West 435 501 34,000  Level FlightAware ADS-B
Mon 05:14:36 PM 36.9270 -95.9060 258° West 434 499 34,000  Level FlightAware ADS-B
Mon 05:15:26 PM 36.9050 -96.0270 257° West 433 498 34,000  Level FlightAware ADS-B
Mon 05:16:01 PM 36.8900 -96.1110 257° West 432 497 34,000  Level FlightAware ADS-B
Mon 05:17:01 PM 36.8630 -96.2570 257° West 434 499 34,000  Level FlightAware ADS-B
Mon 05:17:50 PM 36.8410 -96.3790 257° West 436 502 34,000  Level FlightAware ADS-B
Mon 05:18:36 PM 36.8200 -96.4920 257° West 435 501 34,000  Level FlightAware ADS-B
Mon 05:19:23 PM 36.7990 -96.6060 257° West 433 498 34,000  Level FlightAware ADS-B
Mon 05:20:19 PM 36.7740 -96.7430 257° West 434 499 34,000  Level FlightAware ADS-B
Mon 05:20:59 PM 36.7560 -96.8400 257° West 433 498 34,000  Level FlightAware ADS-B
Mon 05:21:31 PM 36.7410 -96.9180 257° West 433 498 34,000  Level FlightAware ADS-B
Mon 05:22:23 PM 36.7170 -97.0430 257° West 434 499 34,000  Level FlightAware ADS-B
Mon 05:23:04 PM 36.6980 -97.1430 257° West 434 499 34,000  Level FlightAware ADS-B
Mon 05:24:03 PM 36.6710 -97.2860 257° West 435 501 34,000  Level FlightAware ADS-B
Mon 05:24:48 PM 36.6500 -97.3970 257° West 437 503 34,000  Level FlightAware ADS-B
Mon 05:25:19 PM 36.6360 -97.4710 257° West 437 503 34,000  Level FlightAware ADS-B
Mon 05:26:08 PM 36.6120 -97.5920 256° West 438 504 34,000  Level FlightAware ADS-B
Mon 05:27:03 PM 36.5860 -97.7250 256° West 438 504 34,000  Level FlightAware ADS-B
Mon 05:27:52 PM 36.5620 -97.8470 256° West 439 505 34,000  Level FlightAware ADS-B
Mon 05:28:20 PM 36.5490 -97.9160 257° West 439 505 34,000  Level FlightAware ADS-B
Mon 05:29:21 PM 36.5190 -98.0650 256° West 439 505 34,000  Level FlightAware ADS-B
Mon 05:29:51 PM 36.5040 -98.1380 256° West 439 505 34,000  Level FlightAware ADS-B
Mon 05:30:33 PM 36.4840 -98.2380 256° West 439 505 34,000  Level FlightAware ADS-B
Mon 05:31:25 PM 36.4580 -98.3670 256° West 440 506 34,000  Level FlightAware ADS-B
Mon 05:32:16 PM 36.4330 -98.4940 256° West 440 506 34,000  Level FlightAware ADS-B
Mon 05:32:58 PM 36.4120 -98.5940 255° West 440 506 34,000  Level FlightAware ADS-B
Mon 05:33:44 PM 36.3900 -98.7050 256° West 440 506 34,000  Level FlightAware ADS-B
Mon 05:34:25 PM 36.3690 -98.8070 256° West 440 506 34,000  Level FlightAware ADS-B
Mon 05:35:26 PM 36.3380 -98.9550 255° West 441 507 34,000  Level FlightAware ADS-B
Mon 05:35:58 PM 36.3220 -99.0340 256° West 442 509 34,000  Level FlightAware ADS-B
Mon 05:36:45 PM 36.2970 -99.1510 255° West 441 507 34,000  Level FlightAware ADS-B
Mon 05:37:33 PM 36.2730 -99.2680 256° West 442 509 34,000  Level FlightAware ADS-B
Mon 05:38:17 PM 36.2500 -99.3740 255° West 442 509 34,000  Level FlightAware ADS-B
Mon 05:39:14 PM 36.2210 -99.5120 255° West 442 509 34,000  Level FlightAware ADS-B
Mon 05:39:49 PM 36.2020 -99.6020 255° West 441 507 34,000  Level FlightAware ADS-B
Mon 05:40:25 PM 36.1840 -99.6870 255° West 441 507 34,000  Level FlightAware ADS-B
Mon 05:41:22 PM 36.1540 -99.8270 255° West 441 507 34,000  Level FlightAware ADS-B
Mon 05:42:12 PM 36.1280 -99.9460 255° West 443 510 34,000  Level FlightAware ADS-B
Mon 05:43:10 PM 36.0970 -100.0900 255° West 443 510 34,000  Level FlightAware ADS-B
Mon 05:43:40 PM 36.0800 -100.1650 254° West 443 510 34,000  Level FlightAware ADS-B
Mon 05:44:35 PM 36.0510 -100.2980 255° West 444 511 34,000  Level FlightAware ADS-B
Mon 05:45:24 PM 36.0250 -100.4180 255° West 444 511 34,000  Level FlightAware ADS-B
Mon 05:46:18 PM 35.9960 -100.5490 255° West 445 512 34,000  Level FlightAware ADS-B
Mon 05:47:00 PM 35.9730 -100.6520 255° West 445 512 34,000  Level FlightAware ADS-B
Mon 05:47:39 PM 35.9520 -100.7450 254° West 447 514 34,000  Level FlightAware ADS-B
Mon 05:48:24 PM 35.9270 -100.8580 255° West 447 514 34,000  Level FlightAware ADS-B
Mon 05:49:08 PM 35.9030 -100.9610 254° West 447 514 34,000  Level FlightAware ADS-B
Mon 05:49:51 PM 35.8780 -101.0710 254° West 446 513 34,000  Level FlightAware ADS-B
Mon 05:50:39 PM 35.8510 -101.1890 254° West 447 514 34,000  Level FlightAware ADS-B
Mon 05:51:41 PM 35.8160 -101.3410 254° West 447 514 34,000  Level FlightAware ADS-B
Mon 05:52:08 PM 35.8010 -101.4070 254° West 448 516 34,000  Level FlightAware ADS-B
Mon 05:53:05 PM 35.7630 -101.5440 251° West 448 516 34,000  Level FlightAware ADS-B
Mon 05:53:49 PM 35.7340 -101.6510 252° West 446 513 34,000  Level FlightAware ADS-B
Mon 05:54:40 PM 35.7000 -101.7720 251° West 448 516 34,000  Level FlightAware ADS-B
Mon 05:55:12 PM 35.6790 -101.8520 252° West 448 516 34,000  Level FlightAware ADS-B
Mon 05:55:57 PM 35.6500 -101.9580 251° West 449 517 34,000  Level FlightAware ADS-B
Mon 05:56:41 PM 35.6200 -102.0660 251° West 447 514 34,000  Level FlightAware ADS-B
Mon 05:57:20 PM 35.5940 -102.1580 251° West 447 514 34,000  Level FlightAware ADS-B
Mon 05:58:06 PM 35.5630 -102.2690 251° West 448 516 34,000  Level FlightAware ADS-B
Mon 05:58:59 PM 35.5270 -102.3960 251° West 449 517 34,000  Level FlightAware ADS-B
Mon 05:59:30 PM 35.5070 -102.4690 251° West 448 516 34,000  Level FlightAware ADS-B
Mon 06:00:02 PM 35.4850 -102.5480 251° West 448 516 34,000  Level FlightAware ADS-B
Mon 06:00:54 PM 35.4500 -102.6710 251° West 448 516 34,000  Level FlightAware ADS-B
Mon 06:01:45 PM 35.4150 -102.7930 251° West 449 517 34,000  Level FlightAware ADS-B
Mon 06:02:25 PM 35.3880 -102.8900 251° West 449 517 34,000  Level FlightAware ADS-B
Mon 06:03:02 PM 35.3620 -102.9790 250° West 448 516 34,000  Level FlightAware ADS-B
Mon 06:03:32 PM 35.3410 -103.0520 251° West 448 516 34,000  Level FlightAware ADS-B
Mon 06:04:25 PM 35.3050 -103.1780 251° West 447 514 34,000  Level FlightAware ADS-B
Mon 06:05:12 PM 35.2720 -103.2900 250° West 446 513 34,000  Level FlightAware ADS-B
Mon 06:06:06 PM 35.2350 -103.4180 251° West 445 512 34,000  Level FlightAware ADS-B
Mon 06:07:02 PM 35.1960 -103.5510 250° West 444 511 34,000  Level FlightAware ADS-B
Mon 06:07:59 PM 35.1780 -103.6870 261° West 423 487 34,000  Level FlightAware ADS-B
Mon 06:08:42 PM 35.1740 -103.7880 267° West 412 474 34,000  Level FlightAware ADS-B
Mon 06:09:26 PM 35.1690 -103.8890 267° West 409 471 34,000  Level FlightAware ADS-B
Mon 06:10:11 PM 35.1650 -103.9930 267° West 411 473 34,000  Level FlightAware ADS-B
Mon 06:10:59 PM 35.1590 -104.1060 266° West 413 475 34,000  Level FlightAware ADS-B
Mon 06:11:51 PM 35.1540 -104.2260 267° West 415 478 34,000  Level FlightAware ADS-B
Mon 06:12:45 PM 35.1470 -104.3530 266° West 418 481 34,000  Level FlightAware ADS-B
Mon 06:13:30 PM 35.1420 -104.4610 267° West 419 482 34,000  Level FlightAware ADS-B
Mon 06:14:31 PM 35.1350 -104.6030 267° West 419 482 34,000  Level FlightAware ADS-B
Mon 06:14:59 PM 35.1310 -104.6710 266° West 419 482 34,000  Level FlightAware ADS-B
Mon 06:15:56 PM 35.1240 -104.8050 266° West 417 480 34,000 -508 Level FlightAware ADS-B
Mon 06:16:57 PM 35.1170 -104.9470 267° West 410 472 33,000 -1,107 Descending FlightAware ADS-B
Mon 06:17:39 PM 35.1100 -105.0420 265° West 390 449 32,100 -1,596 Descending FlightAware ADS-B
Mon 06:18:31 PM 35.0950 -105.1540 261° West 382 440 30,500 -1,882 Descending FlightAware ADS-B
Mon 06:19:21 PM 35.0800 -105.2570 260° West 377 434 28,900 -1,926 Descending FlightAware ADS-B
Mon 06:19:52 PM 35.0700 -105.3220 259° West 373 429 27,900 -1,729 Descending FlightAware ADS-B
Mon 06:20:20 PM 35.0610 -105.3790 259° West 363 418 27,200 -1,378 Descending FlightAware ADS-B
Mon 06:21:06 PM 35.0460 -105.4700 259° West 348 400 26,200 -1,485 Descending FlightAware ADS-B
Mon 06:21:57 PM 35.0300 -105.5670 259° West 336 387 24,800 -1,600 Descending FlightAware ADS-B
Mon 06:22:51 PM 35.0140 -105.6660 259° West 327 376 23,400 -1,663 Descending FlightAware ADS-B
Mon 06:23:20 PM 35.0060 -105.7150 259° West 325 374 22,500 -593 Descending FlightAware ADS-B
Mon 06:24:22 PM 34.9890 -105.8100 258° West 325 374 22,500  Level FlightAware ADS-B
Mon 06:25:32 PM 34.9710 -105.9170 258° West 325 374 22,500  Level FlightAware ADS-B
Mon 06:26:08 PM 34.9610 -105.9720 258° West 325 374 22,500  Level FlightAware ADS-B
Mon 06:26:32 PM 34.9550 -106.0080 259° West 325 374 22,500  Level FlightAware ADS-B
Mon 06:27:11 PM 34.9440 -106.0680 257° West 325 374 22,500 -7,627 Level FlightAware ADS-B
Mon 06:27:31 PM 34.9570 -106.1540 280° West 311 358 15,000 -8,459 Descending FlightAware ADS-B
Mon 06:28:12 PM 34.9580 -106.2210 271° West 310 357 13,900 -1,694 Descending FlightAware ADS-B
Mon 06:28:56 PM 34.9590 -106.3010 271° West 310 357 12,600 -1,596 Descending FlightAware ADS-B
Mon 06:29:46 PM 34.9600 -106.3820 271° West 292 336 11,400 -1,500 Descending FlightAware ADS-B
Mon 06:30:36 PM 34.9570 -106.4680 268° West 296 341 10,100 -1,286 Descending FlightAware ADS-B
Mon 06:30:56 PM 34.9540 -106.5000 263° West 284 327 9,900 -933 Descending FlightAware ADS-B
Mon 06:31:21 PM 34.9480 -106.5370 259° West 266 306 9,400 -1,320 Descending FlightAware ADS-B
Mon 06:31:46 PM 34.9380 -106.5730 251° West 250 288 8,800 -1,200 Descending FlightAware ADS-B
Mon 06:32:21 PM 34.9220 -106.6130 244° Southwest 212 244 8,200 -1,100 Descending FlightAware ADS-B
Mon 06:32:46 PM 34.9110 -106.6390 243° Southwest 201 231 7,700 -1,067 Descending FlightAware ADS-B
Mon 06:33:06 PM 34.9040 -106.6540 240° Southwest 198 228 7,400 -1,000 Descending FlightAware ADS-B
Mon 06:33:16 PM 34.9020 -106.6670 259° West 192 221 7,200 -360 Descending FlightAware ADS-B
Mon 06:33:56 PM 34.9200 -106.6980 305° West 167 192 7,100 -257 Descending FlightAware ADS-B
Mon 06:34:26 PM 34.9430 -106.7050 346° North 157 181 6,900 -600 Descending FlightAware ADS-B
Mon 06:34:46 PM 34.9560 -106.7030 North 149 171 6,600 -655 Descending FlightAware ADS-B
Mon 06:35:21 PM 34.9770 -106.6860 34° Northeast 153 176 6,300 -700 Descending FlightAware ADS-B
Mon 06:35:46 PM 34.9890 -106.6710 46° Northeast 148 170 5,900 -800 Descending FlightAware ADS-B
Mon 06:36:06 PM 34.9970 -106.6620 43° Northeast 151 174 5,700 -750 Descending FlightAware ADS-B
Mon 06:36:26 PM 35.0090 -106.6470 46° Northeast 150 173 5,400 -840 Descending FlightAware ADS-B
Mon 06:36:56 PM 35.0240 -106.6290 44° Northeast 150 173 5,000 -800 Descending FlightAware ADS-B
Mon 06:37:01 PM 35.0260 -106.6260 51° Northeast 140 161 -60,000 Descending FlightAware ADS-B
Mon 06:37:27 PM 35.0360 -106.6140 44° Northeast 140 161  Level FlightAware ADS-B

Login

Don't have an account? Register now (free) for customized features, flight alerts, and more!